Time;durP1;ratioP1;P1;durP2;ratioP2;P2;SDS_P1;SDS_P2;PMS_P1;PMS_P2;Temp;Humidity;BMP_temperature;BMP_pressure;BME280_temperature;BME280_humidity;BME280_pressure;Samples;Min_cycle;Max_cycle;Signal;HPM_P1;HPM_P2
2022/06/23 00:02:56;;;;;;;4.50;4.10;;;;;;;16.91;87.76;97318.66;6207966;28;20228;-89
2022/06/23 00:06:03;;;;;;;5.17;4.67;;;;;;;16.82;87.79;97325.84;6195477;28;20228;-89
2022/06/23 00:09:33;;;;;;;4.03;3.73;;;;;;;16.75;87.82;97342.72;6212165;28;20239;-88
2022/06/23 00:12:40;;;;;;;4.23;3.93;;;;;;;16.73;88.14;97337.53;6212089;28;20307;-88
2022/06/23 00:15:44;;;;;;;4.77;4.37;;;;;;;16.76;87.90;97339.03;6212010;28;20236;-88
2022/06/23 00:18:46;;;;;;;4.30;4.00;;;;;;;16.73;88.02;97355.38;6211774;28;20290;-88
2022/06/23 00:21:52;;;;;;;4.63;4.23;;;;;;;16.71;87.86;97354.69;6211625;28;20712;-88
2022/06/23 00:24:57;;;;;;;5.67;5.17;;;;;;;16.67;87.97;97362.19;6196827;28;20223;-88
2022/06/23 00:28:01;;;;;;;5.50;5.00;;;;;;;16.63;88.08;97368.03;6212282;28;20243;-88
2022/06/23 00:31:06;;;;;;;4.40;4.00;;;;;;;16.60;88.19;97364.66;6195206;28;20232;-89
2022/06/23 00:34:33;;;;;;;5.47;5.03;;;;;;;16.63;88.48;97363.53;6193510;28;20239;-88
2022/06/23 00:37:35;;;;;;;5.03;4.53;;;;;;;16.69;88.74;97364.69;6186577;28;20245;-89
2022/06/23 00:40:42;;;;;;;4.93;4.53;;;;;;;16.74;88.75;97357.88;6206385;28;20228;-88
2022/06/23 00:43:48;;;;;;;5.17;4.77;;;;;;;16.73;88.89;97368.69;6208754;28;20340;-88
2022/06/23 00:46:56;;;;;;;5.30;4.67;;;;;;;16.73;89.21;97379.34;6198897;28;20267;-89
2022/06/23 00:50:04;;;;;;;5.17;4.77;;;;;;;16.76;89.30;97382.53;6207077;28;20228;-88
2022/06/23 00:53:12;;;;;;;5.30;4.67;;;;;;;16.80;89.06;97390.97;6206764;28;20290;-89
2022/06/23 00:56:28;;;;;;;6.00;5.50;;;;;;;16.80;89.26;97390.97;6190249;28;20335;-89
2022/06/23 00:59:38;;;;;;;4.90;4.50;;;;;;;16.75;89.15;97388.84;6189655;28;20227;-88
2022/06/23 01:02:55;;;;;;;4.63;4.17;;;;;;;16.68;89.06;97393.16;6205776;28;20244;-88
2022/06/23 01:06:15;;;;;;;4.60;4.20;;;;;;;16.65;89.44;97395.34;6206154;28;20339;-89
2022/06/23 01:09:31;;;;;;;5.60;5.10;;;;;;;16.69;89.59;97392.16;6178230;28;20885;-88
2022/06/23 01:12:36;;;;;;;5.37;4.97;;;;;;;16.75;89.63;97394.19;6190456;28;20227;-88
2022/06/23 01:15:52;;;;;;;5.70;5.20;;;;;;;16.77;89.56;97389.47;6189594;28;20232;-89
2022/06/23 01:19:00;;;;;;;4.90;4.50;;;;;;;16.75;89.63;97390.69;6206829;28;20241;-88
2022/06/23 01:22:14;;;;;;;5.87;5.37;;;;;;;16.72;89.45;97391.84;6205829;28;20229;-88
2022/06/23 01:25:43;;;;;;;5.20;4.80;;;;;;;16.73;89.61;97403.34;6206779;28;20461;-89
2022/06/23 01:28:46;;;;;;;5.17;4.77;;;;;;;16.70;90.06;97387.66;6206711;28;20323;-88
2022/06/23 01:31:52;;;;;;;5.00;4.50;;;;;;;16.68;90.00;97393.16;6206549;28;20645;-89
2022/06/23 01:35:00;;;;;;;5.60;5.20;;;;;;;16.70;90.19;97390.34;6203492;28;20228;-89
2022/06/23 01:38:21;;;;;;;5.10;4.70;;;;;;;16.69;89.74;97378.84;6204828;28;20286;-88
2022/06/23 01:41:30;;;;;;;5.07;4.67;;;;;;;16.69;90.04;97378.84;6206018;28;20236;-89
2022/06/23 01:44:45;;;;;;;4.97;4.57;;;;;;;16.70;90.29;97382.34;6204248;28;20315;-89
2022/06/23 01:47:55;;;;;;;5.57;5.07;;;;;;;16.64;90.22;97396.34;6205730;28;20827;-88
2022/06/23 01:50:57;;;;;;;5.37;4.87;;;;;;;16.60;90.22;97404.63;6189137;28;20240;-88
2022/06/23 01:54:20;;;;;;;5.20;4.80;;;;;;;16.51;90.15;97402.97;6206005;28;20390;-88
2022/06/23 01:57:32;;;;;;;4.63;4.33;;;;;;;16.48;90.39;97413.13;6188258;28;20241;-88
2022/06/23 02:00:42;;;;;;;5.80;5.13;;;;;;;16.48;90.32;97407.78;6205671;28;20224;-88
2022/06/23 02:03:50;;;;;;;5.23;4.83;;;;;;;16.45;90.20;97408.16;6176733;28;20254;-88
2022/06/23 02:07:06;;;;;;;4.97;4.63;;;;;;;16.37;90.37;97414.28;6168530;28;20225;-89
2022/06/23 02:10:22;;;;;;;6.50;5.03;;;;;;;16.31;90.65;97416.78;6180535;28;20237;-88
2022/06/23 02:13:44;;;;;;;5.70;5.07;;;;;;;16.29;90.99;97416.09;6181826;28;20240;-89
2022/06/23 02:16:50;;;;;;;5.30;4.90;;;;;;;16.23;90.98;97420.28;6196941;28;20239;-89
2022/06/23 02:19:55;;;;;;;5.67;5.10;;;;;;;16.21;91.10;97430.25;6193678;28;20267;-88
2022/06/23 02:23:18;;;;;;;5.50;5.10;;;;;;;16.16;90.96;97433.44;6188575;28;20255;-88
2022/06/23 02:26:36;;;;;;;5.43;4.93;;;;;;;16.06;90.82;97432.75;6204732;28;20609;-87
2022/06/23 02:29:40;;;;;;;5.77;5.27;;;;;;;15.96;90.86;97440.03;6180645;28;20233;-89
2022/06/23 02:33:10;;;;;;;5.50;5.10;;;;;;;15.91;90.91;97444.16;6186053;28;20224;-88
2022/06/23 02:36:28;;;;;;;4.90;4.50;;;;;;;15.82;91.04;97448.63;6171514;28;20243;-88
2022/06/23 02:39:45;;;;;;;5.53;5.10;;;;;;;15.79;90.93;97447.13;6204261;28;20260;-88
2022/06/23 02:42:58;;;;;;;5.00;4.60;;;;;;;15.77;91.05;97451.78;6204030;28;20364;-88
2022/06/23 02:46:22;;;;;;;6.67;6.07;;;;;;;15.71;91.02;97468.38;6187284;28;20723;-88
2022/06/23 02:49:55;;;;;;;5.73;5.10;;;;;;;15.60;90.83;97465.19;6203161;28;20260;-88
2022/06/23 02:53:16;;;;;;;5.90;5.40;;;;;;;15.51;91.01;97475.75;6188640;28;20220;-89
2022/06/23 02:56:38;;;;;;;5.63;5.23;;;;;;;15.44;90.93;97472.06;6171795;28;20231;-89
2022/06/23 02:59:50;;;;;;;5.67;5.17;;;;;;;15.40;90.94;97472.53;6187541;28;20602;-88
2022/06/23 03:03:02;;;;;;;7.40;5.30;;;;;;;15.36;91.03;97468.53;6203520;28;20236;-89
2022/06/23 03:06:15;;;;;;;5.60;5.10;;;;;;;15.33;90.80;97475.00;6186434;28;20754;-89
2022/06/23 03:09:37;;;;;;;6.30;5.53;;;;;;;15.32;91.00;97478.66;6208117;28;20211;-88
2022/06/23 03:12:55;;;;;;;6.27;5.70;;;;;;;15.36;90.80;97480.00;6187599;28;21032;-88
2022/06/23 03:16:22;;;;;;;5.27;4.87;;;;;;;15.39;90.64;97478.84;6205721;28;20235;-89
2022/06/23 03:19:34;;;;;;;5.80;5.30;;;;;;;15.44;90.87;97474.72;6188634;28;20294;-89
2022/06/23 03:22:39;;;;;;;6.20;5.60;;;;;;;15.45;90.58;97476.41;6204129;28;20236;-88
2022/06/23 03:26:07;;;;;;;6.43;5.73;;;;;;;15.39;90.33;97470.84;6203505;28;20228;-88
2022/06/23 03:29:12;;;;;;;6.00;5.43;;;;;;;15.36;90.60;97479.16;6186838;28;20228;-88
2022/06/23 03:32:28;;;;;;;5.93;5.27;;;;;;;15.32;90.42;97480.47;6203225;28;20315;-88
2022/06/23 03:35:41;;;;;;;6.07;5.57;;;;;;;15.29;90.75;97480.78;6204735;28;20228;-88
2022/06/23 03:42:24;;;;;;;6.43;5.70;;;;;;;15.36;90.67;97490.66;6203090;28;20273;-89
2022/06/23 03:45:35;;;;;;;6.00;5.50;;;;;;;15.40;90.56;97486.66;6179838;28;20709;-89
2022/06/23 03:49:01;;;;;;;5.50;5.00;;;;;;;15.42;90.51;97487.34;6185310;28;20224;-89
2022/06/23 03:52:13;;;;;;;7.20;6.50;;;;;;;15.39;90.63;97495.63;6203800;28;21221;-89
2022/06/23 03:55:47;;;;;;;5.80;4.93;;;;;;;15.34;90.51;97499.75;6186956;28;20700;-89
2022/06/23 03:59:13;;;;;;;5.13;4.73;;;;;;;15.37;90.45;97515.41;6186017;28;20228;-89
2022/06/23 04:02:27;;;;;;;6.37;5.77;;;;;;;15.42;90.50;97510.44;6202702;28;20237;-89
2022/06/23 04:05:44;;;;;;;5.80;5.30;;;;;;;15.49;89.99;97514.13;6202755;28;20227;-89
2022/06/23 04:08:54;;;;;;;6.10;5.60;;;;;;;15.60;90.09;97513.91;6186219;28;20279;-89
2022/06/23 04:12:07;;;;;;;6.27;5.70;;;;;;;15.73;89.84;97518.78;6202203;28;20388;-89
2022/06/23 04:15:17;;;;;;;6.43;5.93;;;;;;;15.84;89.66;97511.38;6162627;28;20226;-89
2022/06/23 04:18:23;;;;;;;7.00;6.40;;;;;;;15.96;89.63;97511.91;6184320;28;20237;-89
2022/06/23 04:21:28;;;;;;;5.83;5.30;;;;;;;16.02;89.56;97516.56;6193345;28;20239;-89
2022/06/23 04:24:33;;;;;;;6.20;5.57;;;;;;;16.06;89.34;97520.59;6198205;28;20319;-89
2022/06/23 04:27:44;;;;;;;6.00;5.40;;;;;;;16.11;89.51;97526.25;6206253;28;20236;-88
2022/06/23 04:30:47;;;;;;;6.20;5.70;;;;;;;16.17;89.77;97527.47;6206972;28;20251;-89
2022/06/23 04:33:50;;;;;;;6.10;5.57;;;;;;;16.21;89.71;97523.47;6208163;28;20749;-88
2022/06/23 04:36:53;;;;;;;5.43;5.03;;;;;;;16.22;89.35;97530.44;6207696;28;20236;-89
2022/06/23 04:40:24;;;;;;;5.10;4.70;;;;;;;16.21;89.52;97532.28;6209459;28;20228;-88
2022/06/23 04:43:35;;;;;;;5.70;5.20;;;;;;;16.23;89.75;97534.78;6175148;28;20240;-89
2022/06/23 04:46:42;;;;;;;5.20;4.80;;;;;;;16.27;89.76;97530.78;6209575;28;20604;-89
2022/06/23 04:49:54;;;;;;;5.43;5.03;;;;;;;16.34;89.54;97541.66;6190982;28;20317;-89
2022/06/23 04:52:58;;;;;;;5.80;5.30;;;;;;;16.39;89.44;97539.31;6191031;28;20280;-89
2022/06/23 04:56:16;;;;;;;5.17;4.77;;;;;;;16.41;89.19;97546.16;6190836;28;20246;-89
2022/06/23 04:59:40;;;;;;;5.50;5.07;;;;;;;16.41;89.32;97542.66;6206307;28;20629;-89
2022/06/23 05:02:49;;;;;;;4.93;4.53;;;;;;;16.50;89.07;97549.66;6207481;28;20320;-88
2022/06/23 05:06:17;;;;;;;5.40;5.00;;;;;;;16.66;89.08;97554.25;6207881;28;20612;-88
2022/06/23 05:09:41;;;;;;;5.10;4.73;;;;;;;16.76;88.74;97550.44;6146258;28;20228;-88
2022/06/23 05:12:53;;;;;;;5.10;4.57;;;;;;;16.88;88.38;97554.41;6189681;28;20233;-88
2022/06/23 05:16:10;;;;;;;4.30;4.00;;;;;;;17.01;88.25;97556.59;6181962;28;20232;-89
2022/06/23 05:19:25;;;;;;;6.43;4.43;;;;;;;17.12;87.93;97553.59;6175810;28;20237;-88
2022/06/23 05:22:30;;;;;;;4.77;4.10;;;;;;;17.26;87.84;97562.75;6181284;28;20232;-89
2022/06/23 05:25:36;;;;;;;4.60;4.20;;;;;;;17.39;87.66;97563.06;6181610;28;20587;-88
2022/06/23 05:28:42;;;;;;;4.77;4.37;;;;;;;17.47;87.61;97573.72;6188920;28;20298;-87
2022/06/23 05:31:48;;;;;;;4.77;4.37;;;;;;;17.44;87.70;97575.91;6205405;28;20227;-88
2022/06/23 05:34:57;;;;;;;4.87;4.47;;;;;;;17.46;88.25;97580.09;6184539;28;20260;-87
2022/06/23 05:38:27;;;;;;;4.40;4.10;;;;;;;17.55;88.31;97584.41;6189005;28;20708;-91
2022/06/23 05:41:43;;;;;;;4.13;3.80;;;;;;;17.62;88.05;97587.22;6189402;28;20229;-88
2022/06/23 05:44:52;;;;;;;4.87;4.50;;;;;;;17.74;87.79;97591.25;6206057;28;20248;-88
2022/06/23 05:47:57;;;;;;;4.93;4.53;;;;;;;17.87;87.65;97599.53;6164930;28;20237;-89
2022/06/23 05:51:16;;;;;;;4.93;4.53;;;;;;;18.07;87.53;97598.13;6180722;28;20233;-88
2022/06/23 05:54:41;;;;;;;4.30;3.90;;;;;;;18.33;87.12;97600.56;6172654;28;20225;-88
2022/06/23 05:58:22;;;;;;;6.03;4.80;;;;;;;18.56;87.07;97611.31;6205180;28;20239;-89
2022/06/23 06:02:04;;;;;;;6.50;5.00;;;;;;;18.86;87.00;97608.84;6159120;28;20709;-91
2022/06/23 06:05:34;;;;;;;6.43;5.57;;;;;;;19.07;86.60;97609.84;6205392;28;20235;-88
2022/06/23 06:12:25;;;;;;;6.03;5.50;;;;;;;19.42;85.87;97612.94;6204328;28;20232;-89
2022/06/23 06:15:31;;;;;;;6.30;5.07;;;;;;;19.57;85.46;97621.84;6181560;28;20237;-88
2022/06/23 06:18:37;;;;;;;5.90;5.37;;;;;;;19.68;85.33;97607.19;6186123;28;20233;-90
2022/06/23 06:21:40;;;;;;;6.20;5.70;;;;;;;19.63;85.47;97617.63;6184221;28;20711;-88
2022/06/23 06:24:46;;;;;;;5.93;5.43;;;;;;;19.80;85.36;97614.63;6180812;28;20710;-87
2022/06/23 06:27:49;;;;;;;6.40;5.90;;;;;;;20.16;84.31;97616.59;6199993;28;20263;-88
2022/06/23 06:31:16;;;;;;;6.80;6.10;;;;;;;20.45;83.76;97619.28;6204416;28;20232;-88
2022/06/23 06:34:38;;;;;;;5.80;5.20;;;;;;;20.77;82.61;97622.53;6205062;28;20233;-88
2022/06/23 06:37:44;;;;;;;7.63;6.30;;;;;;;21.01;80.94;97622.19;6204092;28;20251;-88
2022/06/23 06:40:51;;;;;;;6.10;5.53;;;;;;;21.26;79.53;97602.03;6187036;28;20229;-88
2022/06/23 06:43:53;;;;;;;6.93;6.27;;;;;;;21.55;78.31;97611.81;6204110;28;20599;-88
2022/06/23 06:46:56;;;;;;;7.00;6.47;;;;;;;21.76;77.36;97615.50;6203317;28;20266;-87
2022/06/23 06:50:05;;;;;;;7.00;6.30;;;;;;;22.05;76.49;97613.47;6187008;28;20796;-88
2022/06/23 06:53:36;;;;;;;6.00;5.50;;;;;;;22.35;74.82;97607.84;6187555;28;20707;-87
2022/06/23 06:56:51;;;;;;;5.77;4.93;;;;;;;22.60;73.96;97608.16;6187239;28;20730;-88
2022/06/23 07:00:19;;;;;;;4.77;4.37;;;;;;;22.97;72.44;97609.53;6187323;28;20603;-88
2022/06/23 07:03:24;;;;;;;4.83;4.43;;;;;;;23.12;71.54;97610.22;6187857;28;20302;-88
2022/06/23 07:06:47;;;;;;;5.80;4.83;;;;;;;23.37;71.17;97613.13;6203453;28;20220;-88
2022/06/23 07:09:58;;;;;;;4.23;3.83;;;;;;;23.66;70.04;97614.66;6186790;28;20239;-87
2022/06/23 07:13:13;;;;;;;4.30;3.90;;;;;;;23.87;69.09;97617.13;6204586;28;20347;-88
2022/06/23 07:16:59;;;;;;;5.43;4.27;;;;;;;23.64;69.91;97614.03;6173412;28;20815;-88
2022/06/23 07:20:11;;;;;;;3.93;3.63;;;;;;;23.26;70.37;97616.47;6195594;28;20638;-88
2022/06/23 07:23:55;;;;;;;5.03;4.27;;;;;;;22.62;72.17;97611.47;6186041;28;20237;-90
2022/06/23 07:27:08;;;;;;;4.30;4.00;;;;;;;22.22;73.51;97615.81;6166778;28;20233;-88
2022/06/23 07:30:38;;;;;;;4.00;3.70;;;;;;;22.02;74.23;97621.06;6179287;28;20237;-87
2022/06/23 07:33:45;;;;;;;5.13;3.77;;;;;;;22.02;74.55;97616.53;6181127;28;20706;-87
2022/06/23 07:36:55;;;;;;;4.50;4.10;;;;;;;22.50;73.51;97618.44;6204177;28;20232;-87
2022/06/23 07:40:04;;;;;;;4.40;4.00;;;;;;;23.38;70.52;97618.31;6186947;28;20835;-88
2022/06/23 07:43:16;;;;;;;4.63;4.20;;;;;;;24.13;67.62;97617.09;6187665;28;20708;-88
2022/06/23 07:46:18;;;;;;;4.87;3.90;;;;;;;24.17;67.05;97625.56;6186892;28;20327;-87
2022/06/23 07:49:20;;;;;;;8.23;3.93;;;;;;;23.82;68.29;97625.00;6187186;28;20259;-88
2022/06/23 07:52:23;;;;;;;3.97;3.30;;;;;;;23.91;67.82;97624.59;6203167;28;20259;-87
2022/06/23 07:55:52;;;;;;;7.40;3.63;;;;;;;24.15;67.31;97619.59;6208235;28;20254;-88
2022/06/23 07:58:58;;;;;;;3.70;3.37;;;;;;;24.84;65.25;97613.56;6187063;28;20235;-90
2022/06/23 08:02:20;;;;;;;3.50;3.30;;;;;;;25.48;63.99;97618.81;6191313;28;20233;-87
2022/06/23 08:05:39;;;;;;;4.40;3.63;;;;;;;26.09;61.57;97618.94;6209354;28;20233;-88
2022/06/23 08:08:44;;;;;;;3.30;3.00;;;;;;;26.73;58.99;97620.38;6187612;28;20264;-88
2022/06/23 08:18:49;;;;;;;3.47;3.08;;;;;;;27.94;55.95;97619.28;6201116;28;20232;-87
2022/06/23 08:21:55;;;;;;;3.15;2.80;;;;;;;28.10;56.08;97612.31;6204056;28;20229;-86
2022/06/23 08:25:01;;;;;;;4.85;3.10;;;;;;;28.58;53.74;97618.28;6196694;28;20319;-85
2022/06/23 08:28:24;;;;;;;3.28;2.97;;;;;;;28.28;53.25;97620.34;6193075;28;20260;-86
2022/06/23 08:31:31;;;;;;;3.20;2.70;;;;;;;27.33;55.40;97623.13;6206925;28;20236;-88
2022/06/23 08:35:15;;;;;;;4.22;2.95;;;;;;;26.36;57.54;97626.81;6208524;28;20234;-86
2022/06/23 08:38:26;;;;;;;2.78;2.58;;;;;;;25.68;59.54;97633.03;6190280;28;20604;-87
2022/06/23 08:41:47;;;;;;;3.65;2.80;;;;;;;25.31;60.39;97632.03;6206947;28;20242;-85
2022/06/23 08:45:14;;;;;;;4.65;2.85;;;;;;;24.92;62.41;97637.66;6190304;28;20237;-85
2022/06/23 08:48:24;;;;;;;3.17;2.90;;;;;;;24.79;63.08;97641.19;6207026;28;20212;-85
2022/06/23 08:51:41;;;;;;;3.70;3.30;;;;;;;24.98;62.90;97625.97;6190328;28;20233;-85
2022/06/23 08:54:58;;;;;;;3.35;3.03;;;;;;;25.85;60.12;97629.81;6207882;28;20241;-86
2022/06/23 08:58:38;;;;;;;3.35;3.05;;;;;;;26.74;58.02;97622.03;6206887;28;20478;-86
2022/06/23 09:02:00;;;;;;;3.53;3.22;;;;;;;27.45;55.58;97625.88;6205782;28;20328;-87
2022/06/23 09:05:44;;;;;;;3.50;3.20;;;;;;;28.09;51.16;97629.63;6206777;28;20267;-86
2022/06/23 09:09:28;;;;;;;3.25;2.92;;;;;;;28.53;49.71;97614.66;6192554;28;20275;-86
2022/06/23 09:12:43;;;;;;;4.03;3.50;;;;;;;28.85;48.06;97620.53;6174685;28;20366;-86
2022/06/23 09:15:54;;;;;;;4.20;2.90;;;;;;;29.19;47.66;97616.84;6189786;28;20961;-85
2022/06/23 09:19:32;;;;;;;3.35;3.05;;;;;;;28.60;50.17;97618.06;6206504;28;20270;-86
2022/06/23 09:22:53;;;;;;;3.58;3.28;;;;;;;28.06;52.25;97621.97;6207618;28;20260;-87
2022/06/23 09:26:17;;;;;;;4.72;3.33;;;;;;;27.88;52.31;97618.31;6207363;28;20314;-85
2022/06/23 09:29:45;;;;;;;5.07;3.10;;;;;;;27.58;53.73;97617.56;6206818;28;20228;-87
2022/06/23 09:32:55;;;;;;;3.15;2.70;;;;;;;27.01;55.92;97619.00;6192187;28;20323;-85
2022/06/23 09:36:19;;;;;;;2.50;2.33;;;;;;;26.84;56.61;97616.06;6206826;28;20233;-85
2022/06/23 09:39:40;;;;;;;3.67;2.65;;;;;;;27.82;54.24;97613.81;6189010;28;20287;-84
2022/06/23 09:43:06;;;;;;;3.10;2.80;;;;;;;28.19;51.96;97617.16;6189672;28;20827;-85
2022/06/23 09:46:43;;;;;;;3.50;3.20;;;;;;;28.83;50.99;97619.94;6164842;28;20241;-85
2022/06/23 09:50:07;;;;;;;4.72;2.85;;;;;;;29.70;46.56;97615.06;6181329;28;20271;-84
2022/06/23 09:53:29;;;;;;;3.08;2.70;;;;;;;30.32;45.84;97609.50;6204393;28;20224;-85
2022/06/23 09:56:59;;;;;;;2.53;2.30;;;;;;;30.62;39.59;97612.69;6190978;28;20221;-86
2022/06/23 10:00:16;;;;;;;2.75;2.53;;;;;;;30.95;43.03;97608.97;6190566;28;20316;-84
2022/06/23 10:03:40;;;;;;;2.85;2.40;;;;;;;31.33;40.68;97602.63;6205919;28;20673;-85
2022/06/23 10:07:13;;;;;;;4.13;2.70;;;;;;;31.93;42.95;97611.63;6207729;28;20290;-85
2022/06/23 10:10:24;;;;;;;3.88;2.20;;;;;;;30.74;35.39;97609.84;6206994;28;20244;-86
2022/06/23 10:13:53;;;;;;;2.58;2.38;;;;;;;30.53;37.25;97614.19;6205878;28;20264;-85
2022/06/23 10:17:19;;;;;;;2.80;2.30;;;;;;;31.14;35.13;97604.06;6162193;28;20239;-85
2022/06/23 10:20:46;;;;;;;2.30;2.10;;;;;;;30.95;40.89;97613.59;6189724;28;20283;-86
2022/06/23 10:24:14;;;;;;;2.63;2.42;;;;;;;30.33;42.25;97608.44;6204376;28;20229;-86
2022/06/23 10:27:25;;;;;;;2.67;2.47;;;;;;;30.45;43.60;97603.69;6175282;28;20256;-86
2022/06/23 10:31:10;;;;;;;2.50;2.28;;;;;;;30.96;42.36;97601.63;6196254;28;20235;-86
2022/06/23 10:34:29;;;;;;;2.38;2.17;;;;;;;31.82;39.11;97600.63;6183824;28;20221;-86
2022/06/23 10:37:57;;;;;;;2.50;2.20;;;;;;;32.50;34.79;97593.44;6203681;28;20237;-86
2022/06/23 10:41:17;;;;;;;3.78;2.70;;;;;;;31.86;38.34;97598.19;6204042;28;20237;-87
2022/06/23 10:44:31;;;;;;;3.17;2.70;;;;;;;30.25;39.40;97597.94;6202994;28;20241;-86
2022/06/23 10:47:48;;;;;;;3.33;2.22;;;;;;;30.14;42.70;97596.19;6182743;28;20244;-85
2022/06/23 10:51:22;;;;;;;6.03;2.80;;;;;;;30.00;44.56;97601.13;6199319;28;20236;-85
2022/06/23 10:54:44;;;;;;;2.85;2.63;;;;;;;30.23;46.45;97598.22;6202620;28;20224;-86
2022/06/23 10:58:00;;;;;;;4.65;2.15;;;;;;;30.45;45.32;97598.22;6200156;28;20319;-85
2022/06/23 11:01:11;;;;;;;2.67;2.47;;;;;;;30.86;44.06;97587.88;6186483;28;20736;-86
2022/06/23 11:04:37;;;;;;;2.80;2.53;;;;;;;31.11;39.02;97572.66;6205497;28;20707;-86
2022/06/23 11:08:01;;;;;;;3.25;2.60;;;;;;;31.95;38.33;97582.97;6204987;28;20228;-87
2022/06/23 11:11:18;;;;;;;3.20;2.90;;;;;;;31.30;39.21;97583.22;6203253;28;20232;-87
2022/06/23 11:14:50;;;;;;;3.22;2.55;;;;;;;32.29;39.95;97577.22;6186337;28;20708;-83
2022/06/23 11:17:55;;;;;;;4.35;2.55;;;;;;;32.44;38.10;97572.66;6202690;28;20672;-88
2022/06/23 11:21:24;;;;;;;3.40;2.70;;;;;;;32.82;36.63;97568.75;6203681;28;20237;-88
2022/06/23 11:24:26;;;;;;;3.80;2.85;;;;;;;33.35;36.42;97563.94;6202749;28;20582;-88
2022/06/23 11:27:48;;;;;;;3.75;2.80;;;;;;;33.61;36.62;97562.91;6202611;28;20236;-88
2022/06/23 11:31:14;;;;;;;3.22;2.50;;;;;;;34.01;36.66;97564.81;6202868;28;20594;-89
2022/06/23 11:34:53;;;;;;;7.38;2.65;;;;;;;33.93;31.95;97572.78;6202822;28;20224;-88
2022/06/23 11:38:37;;;;;;;4.57;2.90;;;;;;;33.72;32.94;97569.19;6162155;28;20692;-88
2022/06/23 11:41:45;;;;;;;8.95;3.10;;;;;;;32.91;33.43;97560.84;6175146;28;20319;-88
2022/06/23 11:44:59;;;;;;;3.92;2.63;;;;;;;33.11;35.01;97551.88;6202680;28;20367;-88
2022/06/23 11:48:17;;;;;;;3.78;2.50;;;;;;;34.18;33.56;97552.72;6201309;28;20460;-89
2022/06/23 11:51:38;;;;;;;3.05;2.60;;;;;;;34.67;32.15;97547.38;6201909;28;20216;-89
2022/06/23 11:54:43;;;;;;;3.70;2.80;;;;;;;35.42;29.83;97550.84;6187108;28;20232;-89
2022/06/23 11:58:13;;;;;;;2.83;2.40;;;;;;;35.23;28.47;97549.84;6202130;28;20230;-89
2022/06/23 12:01:18;;;;;;;3.53;2.10;;;;;;;33.11;30.61;97541.75;6201645;28;20225;-89
2022/06/23 12:04:40;;;;;;;4.65;2.58;;;;;;;33.09;32.14;97543.09;6185742;28;20248;-88
2022/06/23 12:08:03;;;;;;;3.08;2.20;;;;;;;33.14;32.65;97534.91;6170039;28;20244;-89
2022/06/23 12:11:06;;;;;;;2.60;2.40;;;;;;;32.91;35.29;97545.25;6201893;28;20604;-89
2022/06/23 12:14:09;;;;;;;3.20;2.72;;;;;;;33.07;32.00;97531.59;6187286;28;20243;-89
2022/06/23 12:17:29;;;;;;;3.35;2.65;;;;;;;33.67;30.83;97526.19;6202644;28;20327;-89
2022/06/23 12:21:05;;;;;;;2.78;2.38;;;;;;;33.20;34.82;97531.91;6186025;28;20235;-89
2022/06/23 12:24:35;;;;;;;2.72;2.30;;;;;;;32.43;36.89;97537.41;6181879;28;20241;-89
2022/06/23 12:27:55;;;;;;;2.92;2.45;;;;;;;32.23;35.42;97538.13;6200605;28;20225;-88
2022/06/23 12:31:22;;;;;;;3.42;2.70;;;;;;;31.86;35.75;97533.50;6185728;28;20612;-88
2022/06/23 12:34:34;;;;;;;2.53;2.28;;;;;;;31.71;37.87;97527.94;6171504;28;20229;-88
2022/06/23 12:37:43;;;;;;;3.33;2.40;;;;;;;31.45;39.36;97529.59;6202649;28;20229;-88
2022/06/23 12:40:51;;;;;;;5.15;2.65;;;;;;;32.08;38.68;97525.16;6187088;28;20327;-88
2022/06/23 12:44:11;;;;;;;5.30;2.60;;;;;;;32.34;33.74;97514.41;6206643;28;20243;-88
2022/06/23 12:47:29;;;;;;;2.53;2.20;;;;;;;33.08;35.13;97522.31;6206270;28;20284;-88
2022/06/23 12:51:02;;;;;;;4.18;2.50;;;;;;;32.80;31.64;97529.09;6185643;28;20240;-89
2022/06/23 12:54:13;;;;;;;3.47;2.13;;;;;;;32.65;34.00;97521.63;6205142;28;20378;-88
2022/06/23 12:57:51;;;;;;;2.88;2.40;;;;;;;33.55;31.31;97513.88;6205311;28;20213;-88
2022/06/23 13:01:12;;;;;;;4.55;2.53;;;;;;;34.48;27.11;97510.72;6145308;28;20313;-88
2022/06/23 13:04:42;;;;;;;3.67;2.50;;;;;;;34.62;26.22;97509.84;6167490;28;20285;-87
2022/06/23 13:08:16;;;;;;;3.40;2.30;;;;;;;35.19;28.61;97515.81;6160981;28;20253;-87
2022/06/23 13:11:31;;;;;;;3.92;2.35;;;;;;;34.98;26.63;97502.25;6155707;28;20238;-87
2022/06/23 13:14:48;;;;;;;3.92;2.20;;;;;;;34.05;26.13;97497.41;6140629;28;20329;-87
2022/06/23 13:17:58;;;;;;;3.33;2.30;;;;;;;34.60;26.06;97503.00;6135028;28;20241;-87
2022/06/23 13:21:15;;;;;;;3.80;2.13;;;;;;;34.73;26.52;97503.22;6139008;28;20305;-87
2022/06/23 13:24:21;;;;;;;4.05;2.72;;;;;;;35.24;26.47;97499.34;6131839;28;20727;-87
2022/06/23 13:27:30;;;;;;;3.55;2.10;;;;;;;35.21;27.09;97506.22;6153070;28;20311;-87
2022/06/23 13:30:46;;;;;;;2.80;2.10;;;;;;;34.46;26.38;97494.53;6144156;28;20226;-87
2022/06/23 13:34:00;;;;;;;2.50;2.10;;;;;;;35.34;26.84;97502.81;6154119;28;20371;-88
2022/06/23 13:37:12;;;;;;;3.58;1.88;;;;;;;34.78;25.34;97505.94;6133731;28;20256;-87
2022/06/23 13:40:41;;;;;;;2.47;1.90;;;;;;;33.27;26.71;97507.03;6206067;28;20610;-87
2022/06/23 13:43:54;;;;;;;2.75;2.00;;;;;;;32.38;32.38;97508.13;6186864;28;20318;-87
2022/06/23 13:47:19;;;;;;;3.05;2.15;;;;;;;31.82;33.99;97507.81;6189937;28;20756;-87
2022/06/23 13:50:31;;;;;;;3.10;1.80;;;;;;;31.65;35.92;97509.88;6206013;28;20734;-87
2022/06/23 13:53:52;;;;;;;3.08;1.90;;;;;;;32.86;33.46;97506.94;6190404;28;20285;-87
2022/06/23 13:57:05;;;;;;;4.35;2.05;;;;;;;34.00;27.13;97500.16;6199964;28;20240;-87
2022/06/23 14:00:36;;;;;;;6.22;2.50;;;;;;;35.34;24.69;97491.06;6204789;28;20264;-88
2022/06/23 14:04:01;;;;;;;1.80;1.70;;;;;;;36.76;25.48;97495.06;6200327;28;20231;-87
2022/06/23 14:07:25;;;;;;;2.08;1.95;;;;;;;38.07;25.43;97494.09;6195842;28;20703;-88
2022/06/23 14:10:58;;;;;;;1.70;1.52;;;;;;;39.92;22.33;97491.31;6201674;28;20299;-87
2022/06/23 14:14:10;;;;;;;2.00;1.80;;;;;;;40.78;21.52;97484.16;6202009;28;20229;-87
2022/06/23 14:17:43;;;;;;;3.33;1.60;;;;;;;41.82;17.93;97487.72;6194252;28;20237;-87
2022/06/23 14:21:00;;;;;;;3.70;1.45;;;;;;;42.83;17.06;97474.09;6187062;28;20709;-88
2022/06/23 14:24:14;;;;;;;3.22;1.80;;;;;;;43.79;16.84;97468.16;6166091;28;20249;-88
2022/06/23 14:27:23;;;;;;;5.38;1.98;;;;;;;44.39;17.10;97472.22;6189841;28;20208;-88
2022/06/23 14:30:39;;;;;;;2.38;2.15;;;;;;;45.05;16.51;97466.31;6188748;28;20232;-87
2022/06/23 14:34:06;;;;;;;3.90;2.17;;;;;;;45.82;15.58;97455.78;6192620;28;20229;-87
2022/06/23 14:37:47;;;;;;;3.65;1.63;;;;;;;46.52;14.93;97461.56;6193029;28;20264;-87
2022/06/23 14:40:55;;;;;;;3.55;1.95;;;;;;;45.64;13.47;97448.09;6119726;28;20377;-87
2022/06/23 14:44:44;;;;;;;2.95;1.80;;;;;;;46.05;13.18;97441.22;6132298;28;20226;-88
2022/06/23 14:47:50;;;;;;;3.22;2.88;;;;;;;46.54;13.71;97448.03;6058584;29;20795;-87
2022/06/23 14:51:01;;;;;;;2.85;1.60;;;;;;;46.56;13.87;97442.91;6058974;29;20295;-87
2022/06/23 14:54:28;;;;;;;1.73;1.58;;;;;;;46.09;12.45;97447.72;6064030;29;20717;-88
2022/06/23 14:57:35;;;;;;;2.58;1.75;;;;;;;45.82;13.94;97438.25;6043739;29;20320;-87
2022/06/23 15:01:01;;;;;;;2.85;1.92;;;;;;;45.62;14.20;97422.56;6058868;29;20319;-87
2022/06/23 15:04:03;;;;;;;1.60;1.50;;;;;;;46.19;14.78;97434.03;6057744;29;20743;-87
2022/06/23 15:07:36;;;;;;;4.00;1.90;;;;;;;46.84;13.78;97430.78;6057532;29;20764;-87
2022/06/23 15:10:45;;;;;;;3.50;1.70;;;;;;;45.80;12.29;97424.66;6057366;29;20256;-88
2022/06/23 15:13:57;;;;;;;2.10;1.52;;;;;;;45.64;13.83;97421.03;6042116;29;20372;-87
2022/06/23 15:17:09;;;;;;;2.40;1.48;;;;;;;45.76;13.66;97422.94;6113735;28;20601;-87
2022/06/23 15:20:26;;;;;;;3.42;1.70;;;;;;;44.31;13.08;97411.06;6096431;28;20230;-87
2022/06/23 15:23:31;;;;;;;2.80;1.35;;;;;;;44.06;13.61;97418.59;6183355;28;20224;-87
2022/06/23 15:26:39;;;;;;;4.13;2.40;;;;;;;45.02;13.49;97414.09;6170799;28;20221;-87
2022/06/23 15:29:49;;;;;;;2.13;1.40;;;;;;;44.38;13.00;97414.09;6186247;28;20235;-87
2022/06/23 15:32:58;;;;;;;4.88;2.17;;;;;;;44.97;13.24;97407.94;6203966;28;20281;-87
2022/06/23 15:36:13;;;;;;;4.50;1.88;;;;;;;45.08;16.17;97407.09;6178457;28;20233;-87
2022/06/23 15:39:49;;;;;;;3.75;1.65;;;;;;;44.97;17.64;97403.19;6179946;28;21047;-87
2022/06/23 15:43:11;;;;;;;5.25;1.73;;;;;;;44.05;14.68;97400.28;6185250;28;20237;-87